sensor_id;sensor_type;location;lat;lon;timestamp;temperature;humidity
6377;DHT22;3221;48.858;10.128;2023-07-20T00:00:20;18.50;93.50
6377;DHT22;3221;48.858;10.128;2023-07-20T00:02:50;18.50;93.70
6377;DHT22;3221;48.858;10.128;2023-07-20T00:05:18;18.70;93.80
6377;DHT22;3221;48.858;10.128;2023-07-20T00:07:47;18.70;93.60
6377;DHT22;3221;48.858;10.128;2023-07-20T00:10:18;18.80;93.50
6377;DHT22;3221;48.858;10.128;2023-07-20T00:12:45;18.80;93.40
6377;DHT22;3221;48.858;10.128;2023-07-20T00:15:14;18.80;93.30
6377;DHT22;3221;48.858;10.128;2023-07-20T00:17:41;18.80;93.20
6377;DHT22;3221;48.858;10.128;2023-07-20T00:20:09;18.80;93.40
6377;DHT22;3221;48.858;10.128;2023-07-20T00:22:36;18.60;93.70
6377;DHT22;3221;48.858;10.128;2023-07-20T00:25:03;18.70;93.40
6377;DHT22;3221;48.858;10.128;2023-07-20T00:27:30;18.80;93.20
6377;DHT22;3221;48.858;10.128;2023-07-20T00:29:57;18.80;93.10
6377;DHT22;3221;48.858;10.128;2023-07-20T00:32:24;18.90;93.10
6377;DHT22;3221;48.858;10.128;2023-07-20T00:34:53;18.80;93.10
6377;DHT22;3221;48.858;10.128;2023-07-20T00:37:22;18.90;93.00
6377;DHT22;3221;48.858;10.128;2023-07-20T00:39:49;18.90;93.10
6377;DHT22;3221;48.858;10.128;2023-07-20T00:42:16;18.90;93.10
6377;DHT22;3221;48.858;10.128;2023-07-20T00:44:45;18.90;93.10
6377;DHT22;3221;48.858;10.128;2023-07-20T00:47:12;18.70;93.20
6377;DHT22;3221;48.858;10.128;2023-07-20T00:49:39;18.40;93.50
6377;DHT22;3221;48.858;10.128;2023-07-20T00:52:07;18.60;93.20
6377;DHT22;3221;48.858;10.128;2023-07-20T00:54:34;18.80;93.00
6377;DHT22;3221;48.858;10.128;2023-07-20T00:57:02;18.80;92.90
6377;DHT22;3221;48.858;10.128;2023-07-20T00:59:29;18.80;92.50
6377;DHT22;3221;48.858;10.128;2023-07-20T01:01:58;18.80;92.70
6377;DHT22;3221;48.858;10.128;2023-07-20T01:04:26;18.80;92.30
6377;DHT22;3221;48.858;10.128;2023-07-20T01:07:03;18.70;92.60
6377;DHT22;3221;48.858;10.128;2023-07-20T01:09:34;18.70;92.40
6377;DHT22;3221;48.858;10.128;2023-07-20T01:12:12;18.60;92.50
6377;DHT22;3221;48.858;10.128;2023-07-20T01:14:41;18.60;92.50
6377;DHT22;3221;48.858;10.128;2023-07-20T01:17:10;18.70;92.10
6377;DHT22;3221;48.858;10.128;2023-07-20T01:19:36;18.80;92.20
6377;DHT22;3221;48.858;10.128;2023-07-20T01:22:16;18.80;91.80
6377;DHT22;3221;48.858;10.128;2023-07-20T01:30:50;18.70;91.40
6377;DHT22;3221;48.858;10.128;2023-07-20T01:33:19;18.80;91.50
6377;DHT22;3221;48.858;10.128;2023-07-20T01:35:56;18.70;91.40
6377;DHT22;3221;48.858;10.128;2023-07-20T01:38:28;18.70;91.30
6377;DHT22;3221;48.858;10.128;2023-07-20T01:40:56;18.70;91.20
6377;DHT22;3221;48.858;10.128;2023-07-20T01:43:24;18.60;91.00
6377;DHT22;3221;48.858;10.128;2023-07-20T01:45:51;18.60;91.10
6377;DHT22;3221;48.858;10.128;2023-07-20T01:48:18;18.60;91.00
6377;DHT22;3221;48.858;10.128;2023-07-20T01:50:45;18.40;91.00
6377;DHT22;3221;48.858;10.128;2023-07-20T01:53:13;18.40;91.40
6377;DHT22;3221;48.858;10.128;2023-07-20T01:55:40;18.40;91.20
6377;DHT22;3221;48.858;10.128;2023-07-20T01:58:07;18.50;90.90
6377;DHT22;3221;48.858;10.128;2023-07-20T02:00:36;18.40;91.10
6377;DHT22;3221;48.858;10.128;2023-07-20T02:03:03;18.00;91.60
6377;DHT22;3221;48.858;10.128;2023-07-20T02:05:30;18.10;91.00
6377;DHT22;3221;48.858;10.128;2023-07-20T02:07:59;18.00;91.70
6377;DHT22;3221;48.858;10.128;2023-07-20T02:10:25;18.10;91.40
6377;DHT22;3221;48.858;10.128;2023-07-20T02:12:52;17.90;91.60
6377;DHT22;3221;48.858;10.128;2023-07-20T02:15:19;17.90;91.90
6377;DHT22;3221;48.858;10.128;2023-07-20T02:17:47;17.90;91.80
6377;DHT22;3221;48.858;10.128;2023-07-20T02:20:15;18.00;91.90
6377;DHT22;3221;48.858;10.128;2023-07-20T02:22:42;18.00;91.90
6377;DHT22;3221;48.858;10.128;2023-07-20T02:25:09;17.90;91.70
6377;DHT22;3221;48.858;10.128;2023-07-20T02:27:37;17.70;92.20
6377;DHT22;3221;48.858;10.128;2023-07-20T02:30:06;17.80;91.80
6377;DHT22;3221;48.858;10.128;2023-07-20T02:32:34;17.90;91.90
6377;DHT22;3221;48.858;10.128;2023-07-20T02:35:01;17.80;92.20
6377;DHT22;3221;48.858;10.128;2023-07-20T02:37:30;17.70;92.30
6377;DHT22;3221;48.858;10.128;2023-07-20T02:39:59;17.70;92.30
6377;DHT22;3221;48.858;10.128;2023-07-20T02:42:27;17.90;91.80
6377;DHT22;3221;48.858;10.128;2023-07-20T02:44:55;17.90;91.80
6377;DHT22;3221;48.858;10.128;2023-07-20T02:47:22;18.00;91.60
6377;DHT22;3221;48.858;10.128;2023-07-20T02:49:49;17.90;91.70
6377;DHT22;3221;48.858;10.128;2023-07-20T02:52:16;17.80;91.80
6377;DHT22;3221;48.858;10.128;2023-07-20T02:54:46;17.80;91.80
6377;DHT22;3221;48.858;10.128;2023-07-20T02:57:14;17.80;91.90
6377;DHT22;3221;48.858;10.128;2023-07-20T02:59:42;17.90;91.80
6377;DHT22;3221;48.858;10.128;2023-07-20T03:02:09;17.60;92.00
6377;DHT22;3221;48.858;10.128;2023-07-20T03:04:36;17.20;92.50
6377;DHT22;3221;48.858;10.128;2023-07-20T03:07:04;17.20;92.90
6377;DHT22;3221;48.858;10.128;2023-07-20T03:09:32;17.20;92.80
6377;DHT22;3221;48.858;10.128;2023-07-20T03:12:00;17.30;92.50
6377;DHT22;3221;48.858;10.128;2023-07-20T03:14:28;17.40;92.50
6377;DHT22;3221;48.858;10.128;2023-07-20T03:16:56;17.50;92.10
6377;DHT22;3221;48.858;10.128;2023-07-20T03:19:23;17.60;92.10
6377;DHT22;3221;48.858;10.128;2023-07-20T03:21:50;17.60;92.30
6377;DHT22;3221;48.858;10.128;2023-07-20T03:24:18;17.60;92.40
6377;DHT22;3221;48.858;10.128;2023-07-20T03:26:46;17.60;92.20
6377;DHT22;3221;48.858;10.128;2023-07-20T03:29:13;17.50;92.60
6377;DHT22;3221;48.858;10.128;2023-07-20T03:31:40;17.30;92.80
6377;DHT22;3221;48.858;10.128;2023-07-20T03:34:07;17.20;92.70
6377;DHT22;3221;48.858;10.128;2023-07-20T03:36:36;16.90;93.30
6377;DHT22;3221;48.858;10.128;2023-07-20T03:39:03;16.70;93.50
6377;DHT22;3221;48.858;10.128;2023-07-20T03:41:30;16.60;93.60
6377;DHT22;3221;48.858;10.128;2023-07-20T03:43:58;16.60;94.10
6377;DHT22;3221;48.858;10.128;2023-07-20T03:46:25;16.80;93.70
6377;DHT22;3221;48.858;10.128;2023-07-20T03:48:53;16.30;93.90
6377;DHT22;3221;48.858;10.128;2023-07-20T03:51:19;15.90;94.80
6377;DHT22;3221;48.858;10.128;2023-07-20T03:53:47;15.50;95.50
6377;DHT22;3221;48.858;10.128;2023-07-20T03:56:14;15.90;95.00
6377;DHT22;3221;48.858;10.128;2023-07-20T03:58:41;15.50;95.60
6377;DHT22;3221;48.858;10.128;2023-07-20T04:01:09;15.80;95.20
6377;DHT22;3221;48.858;10.128;2023-07-20T04:03:36;15.90;95.00
6377;DHT22;3221;48.858;10.128;2023-07-20T04:06:04;15.60;95.90
6377;DHT22;3221;48.858;10.128;2023-07-20T04:08:31;15.80;95.60
6377;DHT22;3221;48.858;10.128;2023-07-20T04:10:57;15.40;96.00
6377;DHT22;3221;48.858;10.128;2023-07-20T04:13:24;15.40;95.90
6377;DHT22;3221;48.858;10.128;2023-07-20T04:15:51;15.70;96.10
6377;DHT22;3221;48.858;10.128;2023-07-20T04:18:18;15.40;96.30
6377;DHT22;3221;48.858;10.128;2023-07-20T04:20:46;15.70;95.90
6377;DHT22;3221;48.858;10.128;2023-07-20T04:23:13;15.90;95.60
6377;DHT22;3221;48.858;10.128;2023-07-20T04:25:41;15.50;96.30
6377;DHT22;3221;48.858;10.128;2023-07-20T04:28:11;15.40;96.50
6377;DHT22;3221;48.858;10.128;2023-07-20T04:30:44;15.20;97.00
6377;DHT22;3221;48.858;10.128;2023-07-20T04:33:11;15.20;97.60
6377;DHT22;3221;48.858;10.128;2023-07-20T04:35:51;15.20;97.60
6377;DHT22;3221;48.858;10.128;2023-07-20T04:38:23;15.00;97.50
6377;DHT22;3221;48.858;10.128;2023-07-20T04:40:59;15.00;97.60
6377;DHT22;3221;48.858;10.128;2023-07-20T04:43:31;15.30;97.30
6377;DHT22;3221;48.858;10.128;2023-07-20T04:45:59;15.30;97.90
6377;DHT22;3221;48.858;10.128;2023-07-20T04:48:31;15.50;97.20
6377;DHT22;3221;48.858;10.128;2023-07-20T04:50:59;15.00;98.60
6377;DHT22;3221;48.858;10.128;2023-07-20T04:53:27;15.30;98.00
6377;DHT22;3221;48.858;10.128;2023-07-20T04:55:55;15.30;97.70
6377;DHT22;3221;48.858;10.128;2023-07-20T04:58:24;15.60;97.50
6377;DHT22;3221;48.858;10.128;2023-07-20T05:00:53;14.90;98.70
6377;DHT22;3221;48.858;10.128;2023-07-20T05:03:20;15.30;97.90
6377;DHT22;3221;48.858;10.128;2023-07-20T05:05:48;15.20;98.20
6377;DHT22;3221;48.858;10.128;2023-07-20T05:08:16;15.50;97.50
6377;DHT22;3221;48.858;10.128;2023-07-20T05:10:44;15.70;97.60
6377;DHT22;3221;48.858;10.128;2023-07-20T05:13:11;15.60;98.10
6377;DHT22;3221;48.858;10.128;2023-07-20T05:15:38;15.50;98.10
6377;DHT22;3221;48.858;10.128;2023-07-20T05:18:11;15.20;98.90
6377;DHT22;3221;48.858;10.128;2023-07-20T05:20:40;15.40;98.30
6377;DHT22;3221;48.858;10.128;2023-07-20T05:23:08;15.50;98.50
6377;DHT22;3221;48.858;10.128;2023-07-20T05:25:36;15.50;98.50
6377;DHT22;3221;48.858;10.128;2023-07-20T05:28:04;15.60;98.00
6377;DHT22;3221;48.858;10.128;2023-07-20T05:30:31;15.70;98.80
6377;DHT22;3221;48.858;10.128;2023-07-20T05:33:00;15.70;98.60
6377;DHT22;3221;48.858;10.128;2023-07-20T05:35:27;15.80;97.80
6377;DHT22;3221;48.858;10.128;2023-07-20T05:37:54;16.00;97.20
6377;DHT22;3221;48.858;10.128;2023-07-20T05:40:21;16.30;96.70
6377;DHT22;3221;48.858;10.128;2023-07-20T05:42:49;16.40;96.50
6377;DHT22;3221;48.858;10.128;2023-07-20T05:45:20;16.50;96.30
6377;DHT22;3221;48.858;10.128;2023-07-20T05:47:47;16.50;96.80
6377;DHT22;3221;48.858;10.128;2023-07-20T05:50:14;16.60;95.80
6377;DHT22;3221;48.858;10.128;2023-07-20T05:52:41;16.70;95.90
6377;DHT22;3221;48.858;10.128;2023-07-20T05:55:08;16.70;96.00
6377;DHT22;3221;48.858;10.128;2023-07-20T05:57:35;16.70;95.70
6377;DHT22;3221;48.858;10.128;2023-07-20T06:00:03;16.70;96.00
6377;DHT22;3221;48.858;10.128;2023-07-20T06:02:38;16.90;95.80
6377;DHT22;3221;48.858;10.128;2023-07-20T06:05:07;17.00;95.30
6377;DHT22;3221;48.858;10.128;2023-07-20T06:07:40;17.00;95.30
6377;DHT22;3221;48.858;10.128;2023-07-20T06:10:10;17.00;95.30
6377;DHT22;3221;48.858;10.128;2023-07-20T06:12:37;17.00;95.30
6377;DHT22;3221;48.858;10.128;2023-07-20T06:15:05;17.10;95.10
6377;DHT22;3221;48.858;10.128;2023-07-20T06:17:32;17.10;95.10
6377;DHT22;3221;48.858;10.128;2023-07-20T06:20:00;17.20;95.00
6377;DHT22;3221;48.858;10.128;2023-07-20T06:22:27;17.20;95.10
6377;DHT22;3221;48.858;10.128;2023-07-20T06:24:54;17.20;94.70
6377;DHT22;3221;48.858;10.128;2023-07-20T06:27:21;17.30;94.60
6377;DHT22;3221;48.858;10.128;2023-07-20T06:29:48;17.40;94.50
6377;DHT22;3221;48.858;10.128;2023-07-20T06:32:16;17.50;94.60
6377;DHT22;3221;48.858;10.128;2023-07-20T06:34:43;17.60;94.80
6377;DHT22;3221;48.858;10.128;2023-07-20T06:37:11;17.60;94.30
6377;DHT22;3221;48.858;10.128;2023-07-20T06:39:38;17.60;94.30
6377;DHT22;3221;48.858;10.128;2023-07-20T06:42:08;17.60;94.50
6377;DHT22;3221;48.858;10.128;2023-07-20T06:44:34;17.60;94.40
6377;DHT22;3221;48.858;10.128;2023-07-20T06:47:01;17.60;94.30
6377;DHT22;3221;48.858;10.128;2023-07-20T06:49:29;17.70;94.60
6377;DHT22;3221;48.858;10.128;2023-07-20T06:51:57;17.80;94.40
6377;DHT22;3221;48.858;10.128;2023-07-20T06:54:24;17.80;94.20
6377;DHT22;3221;48.858;10.128;2023-07-20T06:56:51;17.90;94.20
6377;DHT22;3221;48.858;10.128;2023-07-20T06:59:22;17.90;94.40
6377;DHT22;3221;48.858;10.128;2023-07-20T07:01:51;17.90;94.20
6377;DHT22;3221;48.858;10.128;2023-07-20T07:04:19;18.00;94.10
6377;DHT22;3221;48.858;10.128;2023-07-20T07:06:46;18.00;94.00
6377;DHT22;3221;48.858;10.128;2023-07-20T07:09:14;18.10;93.90
6377;DHT22;3221;48.858;10.128;2023-07-20T07:11:40;18.20;94.00
6377;DHT22;3221;48.858;10.128;2023-07-20T07:14:08;18.20;94.00
6377;DHT22;3221;48.858;10.128;2023-07-20T07:16:36;18.40;94.20
6377;DHT22;3221;48.858;10.128;2023-07-20T07:19:06;18.40;93.90
6377;DHT22;3221;48.858;10.128;2023-07-20T07:21:34;18.50;94.00
6377;DHT22;3221;48.858;10.128;2023-07-20T07:24:02;18.50;94.00
6377;DHT22;3221;48.858;10.128;2023-07-20T07:26:31;18.60;93.70
6377;DHT22;3221;48.858;10.128;2023-07-20T07:28:58;18.60;93.40
6377;DHT22;3221;48.858;10.128;2023-07-20T07:31:25;18.50;93.50
6377;DHT22;3221;48.858;10.128;2023-07-20T07:33:52;18.40;93.70
6377;DHT22;3221;48.858;10.128;2023-07-20T07:36:21;18.50;93.80
6377;DHT22;3221;48.858;10.128;2023-07-20T07:38:49;18.60;93.60
6377;DHT22;3221;48.858;10.128;2023-07-20T07:41:36;18.60;93.00
6377;DHT22;3221;48.858;10.128;2023-07-20T07:44:04;18.60;93.70
6377;DHT22;3221;48.858;10.128;2023-07-20T07:46:32;18.60;93.70
6377;DHT22;3221;48.858;10.128;2023-07-20T07:48:59;18.70;93.40
6377;DHT22;3221;48.858;10.128;2023-07-20T07:51:26;18.70;93.30
6377;DHT22;3221;48.858;10.128;2023-07-20T07:53:56;18.80;93.40
6377;DHT22;3221;48.858;10.128;2023-07-20T07:56:24;18.90;93.70
6377;DHT22;3221;48.858;10.128;2023-07-20T07:58:51;18.90;93.10
6377;DHT22;3221;48.858;10.128;2023-07-20T08:01:19;19.00;93.10
6377;DHT22;3221;48.858;10.128;2023-07-20T08:03:48;19.10;93.10
6377;DHT22;3221;48.858;10.128;2023-07-20T08:06:15;19.20;92.60
6377;DHT22;3221;48.858;10.128;2023-07-20T08:08:43;19.20;92.90
6377;DHT22;3221;48.858;10.128;2023-07-20T08:11:10;19.20;93.00
6377;DHT22;3221;48.858;10.128;2023-07-20T08:13:40;19.30;92.90
6377;DHT22;3221;48.858;10.128;2023-07-20T08:16:07;19.30;93.00
6377;DHT22;3221;48.858;10.128;2023-07-20T08:18:34;19.50;93.00
6377;DHT22;3221;48.858;10.128;2023-07-20T08:21:02;19.50;93.10
6377;DHT22;3221;48.858;10.128;2023-07-20T08:23:31;19.50;93.00
6377;DHT22;3221;48.858;10.128;2023-07-20T08:25:58;19.30;93.10
6377;DHT22;3221;48.858;10.128;2023-07-20T08:28:25;19.40;92.90
6377;DHT22;3221;48.858;10.128;2023-07-20T08:30:53;19.50;92.70
6377;DHT22;3221;48.858;10.128;2023-07-20T08:33:20;19.50;92.80
6377;DHT22;3221;48.858;10.128;2023-07-20T08:35:47;19.50;92.90
6377;DHT22;3221;48.858;10.128;2023-07-20T08:38:14;19.40;93.00
6377;DHT22;3221;48.858;10.128;2023-07-20T08:40:45;19.40;93.00
6377;DHT22;3221;48.858;10.128;2023-07-20T08:43:14;19.40;92.80
6377;DHT22;3221;48.858;10.128;2023-07-20T08:45:44;19.60;92.50
6377;DHT22;3221;48.858;10.128;2023-07-20T08:48:12;19.70;91.70
6377;DHT22;3221;48.858;10.128;2023-07-20T08:50:41;19.80;91.30
6377;DHT22;3221;48.858;10.128;2023-07-20T08:53:10;19.80;91.20
6377;DHT22;3221;48.858;10.128;2023-07-20T08:55:43;19.90;91.20
6377;DHT22;3221;48.858;10.128;2023-07-20T08:58:12;19.80;91.50
6377;DHT22;3221;48.858;10.128;2023-07-20T09:00:39;20.00;91.20
6377;DHT22;3221;48.858;10.128;2023-07-20T09:03:12;20.00;90.30
6377;DHT22;3221;48.858;10.128;2023-07-20T09:05:41;20.10;90.40
6377;DHT22;3221;48.858;10.128;2023-07-20T09:08:07;20.10;91.00
6377;DHT22;3221;48.858;10.128;2023-07-20T09:10:34;20.20;90.90
6377;DHT22;3221;48.858;10.128;2023-07-20T09:13:02;20.30;91.10
6377;DHT22;3221;48.858;10.128;2023-07-20T09:15:30;20.20;90.60
6377;DHT22;3221;48.858;10.128;2023-07-20T09:18:01;20.20;91.20
6377;DHT22;3221;48.858;10.128;2023-07-20T09:20:32;20.10;91.20
6377;DHT22;3221;48.858;10.128;2023-07-20T09:23:04;20.00;91.20
6377;DHT22;3221;48.858;10.128;2023-07-20T09:25:33;20.00;91.10
6377;DHT22;3221;48.858;10.128;2023-07-20T09:28:03;20.20;90.50
6377;DHT22;3221;48.858;10.128;2023-07-20T09:30:32;20.40;90.90
6377;DHT22;3221;48.858;10.128;2023-07-20T09:33:00;20.50;90.50
6377;DHT22;3221;48.858;10.128;2023-07-20T09:35:28;20.60;90.50
6377;DHT22;3221;48.858;10.128;2023-07-20T09:38:08;20.80;91.10
6377;DHT22;3221;48.858;10.128;2023-07-20T09:40:39;21.00;90.30
6377;DHT22;3221;48.858;10.128;2023-07-20T09:43:12;21.00;89.50
6377;DHT22;3221;48.858;10.128;2023-07-20T09:45:42;21.10;90.30
6377;DHT22;3221;48.858;10.128;2023-07-20T09:48:13;21.10;89.30
6377;DHT22;3221;48.858;10.128;2023-07-20T09:50:49;21.30;88.60
6377;DHT22;3221;48.858;10.128;2023-07-20T09:53:17;21.30;88.80
6377;DHT22;3221;48.858;10.128;2023-07-20T09:55:46;21.20;89.00
6377;DHT22;3221;48.858;10.128;2023-07-20T09:58:15;21.20;87.50
6377;DHT22;3221;48.858;10.128;2023-07-20T10:00:45;21.10;88.20
6377;DHT22;3221;48.858;10.128;2023-07-20T10:03:22;21.00;88.30
6377;DHT22;3221;48.858;10.128;2023-07-20T10:05:57;20.90;88.60
6377;DHT22;3221;48.858;10.128;2023-07-20T10:08:28;21.00;87.40
6377;DHT22;3221;48.858;10.128;2023-07-20T10:11:00;21.10;87.80
6377;DHT22;3221;48.858;10.128;2023-07-20T10:13:30;21.30;86.90
6377;DHT22;3221;48.858;10.128;2023-07-20T10:16:10;21.20;87.20
6377;DHT22;3221;48.858;10.128;2023-07-20T10:21:22;20.80;88.70
6377;DHT22;3221;48.858;10.128;2023-07-20T10:23:56;20.50;88.90
6377;DHT22;3221;48.858;10.128;2023-07-20T10:26:26;20.60;90.00
6377;DHT22;3221;48.858;10.128;2023-07-20T10:28:54;20.50;89.70
6377;DHT22;3221;48.858;10.128;2023-07-20T10:31:22;20.40;90.10
6377;DHT22;3221;48.858;10.128;2023-07-20T10:33:50;20.40;90.30
6377;DHT22;3221;48.858;10.128;2023-07-20T10:36:25;20.60;90.20
6377;DHT22;3221;48.858;10.128;2023-07-20T10:38:58;20.60;88.80
6377;DHT22;3221;48.858;10.128;2023-07-20T10:41:33;20.50;89.50
6377;DHT22;3221;48.858;10.128;2023-07-20T10:44:06;20.60;90.10
6377;DHT22;3221;48.858;10.128;2023-07-20T10:49:08;20.90;90.10
6377;DHT22;3221;48.858;10.128;2023-07-20T10:51:43;21.10;90.10
6377;DHT22;3221;48.858;10.128;2023-07-20T10:56:48;21.50;90.30
6377;DHT22;3221;48.858;10.128;2023-07-20T10:59:18;21.50;89.90
6377;DHT22;3221;48.858;10.128;2023-07-20T11:01:50;21.70;86.90
6377;DHT22;3221;48.858;10.128;2023-07-20T11:04:18;21.80;87.10
6377;DHT22;3221;48.858;10.128;2023-07-20T11:06:48;21.80;87.20
6377;DHT22;3221;48.858;10.128;2023-07-20T11:09:22;21.80;88.30
6377;DHT22;3221;48.858;10.128;2023-07-20T11:12:09;22.00;87.40
6377;DHT22;3221;48.858;10.128;2023-07-20T11:14:54;22.20;84.50
6377;DHT22;3221;48.858;10.128;2023-07-20T11:17:30;22.20;84.60
6377;DHT22;3221;48.858;10.128;2023-07-20T11:19:59;22.20;85.20
6377;DHT22;3221;48.858;10.128;2023-07-20T11:22:33;22.20;83.70
6377;DHT22;3221;48.858;10.128;2023-07-20T11:25:01;22.10;84.80
6377;DHT22;3221;48.858;10.128;2023-07-20T11:27:28;22.10;85.60
6377;DHT22;3221;48.858;10.128;2023-07-20T11:29:56;22.00;84.50
6377;DHT22;3221;48.858;10.128;2023-07-20T11:32:24;21.90;85.90
6377;DHT22;3221;48.858;10.128;2023-07-20T11:34:52;21.70;86.20
6377;DHT22;3221;48.858;10.128;2023-07-20T11:37:19;21.80;86.50
6377;DHT22;3221;48.858;10.128;2023-07-20T11:39:47;22.00;85.50
6377;DHT22;3221;48.858;10.128;2023-07-20T11:42:14;22.10;84.40
6377;DHT22;3221;48.858;10.128;2023-07-20T11:44:44;22.30;83.80
6377;DHT22;3221;48.858;10.128;2023-07-20T11:47:11;22.10;83.90
6377;DHT22;3221;48.858;10.128;2023-07-20T11:49:40;22.00;83.70
6377;DHT22;3221;48.858;10.128;2023-07-20T11:52:10;22.00;83.70
6377;DHT22;3221;48.858;10.128;2023-07-20T11:54:39;21.90;80.40
6377;DHT22;3221;48.858;10.128;2023-07-20T11:57:07;22.20;83.20
6377;DHT22;3221;48.858;10.128;2023-07-20T11:59:53;22.10;80.50
6377;DHT22;3221;48.858;10.128;2023-07-20T12:02:27;22.00;82.60
6377;DHT22;3221;48.858;10.128;2023-07-20T12:04:56;22.00;83.20
6377;DHT22;3221;48.858;10.128;2023-07-20T12:07:27;22.20;83.80
6377;DHT22;3221;48.858;10.128;2023-07-20T12:10:11;22.50;83.40
6377;DHT22;3221;48.858;10.128;2023-07-20T12:12:41;22.70;81.40
6377;DHT22;3221;48.858;10.128;2023-07-20T12:15:23;22.90;80.60
6377;DHT22;3221;48.858;10.128;2023-07-20T12:17:55;23.00;81.10
6377;DHT22;3221;48.858;10.128;2023-07-20T12:20:33;23.10;82.50
6377;DHT22;3221;48.858;10.128;2023-07-20T12:23:05;23.20;80.80
6377;DHT22;3221;48.858;10.128;2023-07-20T12:28:14;23.40;78.80
6377;DHT22;3221;48.858;10.128;2023-07-20T12:30:43;23.40;79.50
6377;DHT22;3221;48.858;10.128;2023-07-20T12:33:15;23.60;80.50
6377;DHT22;3221;48.858;10.128;2023-07-20T12:35:45;23.70;76.80
6377;DHT22;3221;48.858;10.128;2023-07-20T12:38:13;23.60;77.10
6377;DHT22;3221;48.858;10.128;2023-07-20T12:40:41;23.60;78.70
6377;DHT22;3221;48.858;10.128;2023-07-20T12:43:09;23.90;78.20
6377;DHT22;3221;48.858;10.128;2023-07-20T12:45:37;23.90;77.50
6377;DHT22;3221;48.858;10.128;2023-07-20T12:48:05;23.70;76.60
6377;DHT22;3221;48.858;10.128;2023-07-20T12:50:32;23.80;77.40
6377;DHT22;3221;48.858;10.128;2023-07-20T12:52:59;23.80;75.60
6377;DHT22;3221;48.858;10.128;2023-07-20T12:55:27;23.60;77.10
6377;DHT22;3221;48.858;10.128;2023-07-20T12:57:54;23.60;77.20
6377;DHT22;3221;48.858;10.128;2023-07-20T13:00:24;23.60;75.60
6377;DHT22;3221;48.858;10.128;2023-07-20T13:02:51;23.70;75.00
6377;DHT22;3221;48.858;10.128;2023-07-20T13:05:24;23.90;76.90
6377;DHT22;3221;48.858;10.128;2023-07-20T13:08:11;24.00;76.10
6377;DHT22;3221;48.858;10.128;2023-07-20T13:10:41;24.10;74.50
6377;DHT22;3221;48.858;10.128;2023-07-20T13:13:09;24.00;74.50
6377;DHT22;3221;48.858;10.128;2023-07-20T13:15:43;24.00;75.30
6377;DHT22;3221;48.858;10.128;2023-07-20T13:18:10;24.20;74.40
6377;DHT22;3221;48.858;10.128;2023-07-20T13:20:37;24.30;74.20
6377;DHT22;3221;48.858;10.128;2023-07-20T13:23:05;24.20;73.80
6377;DHT22;3221;48.858;10.128;2023-07-20T13:25:32;23.90;69.80
6377;DHT22;3221;48.858;10.128;2023-07-20T13:27:59;23.60;72.90
6377;DHT22;3221;48.858;10.128;2023-07-20T13:30:26;23.60;74.70
6377;DHT22;3221;48.858;10.128;2023-07-20T13:32:54;23.90;73.10
6377;DHT22;3221;48.858;10.128;2023-07-20T13:35:21;24.00;72.20
6377;DHT22;3221;48.858;10.128;2023-07-20T13:37:48;24.20;72.00
6377;DHT22;3221;48.858;10.128;2023-07-20T13:40:16;24.30;70.50
6377;DHT22;3221;48.858;10.128;2023-07-20T13:42:45;24.10;72.30
6377;DHT22;3221;48.858;10.128;2023-07-20T13:45:13;24.30;73.10
6377;DHT22;3221;48.858;10.128;2023-07-20T13:47:41;24.40;72.20
6377;DHT22;3221;48.858;10.128;2023-07-20T13:50:12;24.60;70.60
6377;DHT22;3221;48.858;10.128;2023-07-20T13:52:52;24.50;70.50
6377;DHT22;3221;48.858;10.128;2023-07-20T13:55:41;24.40;72.70
6377;DHT22;3221;48.858;10.128;2023-07-20T13:58:10;24.30;69.70
6377;DHT22;3221;48.858;10.128;2023-07-20T14:00:39;24.20;69.60
6377;DHT22;3221;48.858;10.128;2023-07-20T14:03:07;24.40;71.70
6377;DHT22;3221;48.858;10.128;2023-07-20T14:05:37;24.50;71.20
6377;DHT22;3221;48.858;10.128;2023-07-20T14:08:08;24.70;70.40
6377;DHT22;3221;48.858;10.128;2023-07-20T14:10:36;24.80;69.60
6377;DHT22;3221;48.858;10.128;2023-07-20T14:13:23;24.60;68.30
6377;DHT22;3221;48.858;10.128;2023-07-20T14:16:10;24.30;67.60
6377;DHT22;3221;48.858;10.128;2023-07-20T14:18:37;24.10;68.00
6377;DHT22;3221;48.858;10.128;2023-07-20T14:21:05;23.80;69.40
6377;DHT22;3221;48.858;10.128;2023-07-20T14:23:35;23.80;70.20
6377;DHT22;3221;48.858;10.128;2023-07-20T14:26:03;24.00;69.70
6377;DHT22;3221;48.858;10.128;2023-07-20T14:28:36;24.00;70.90
6377;DHT22;3221;48.858;10.128;2023-07-20T14:31:04;23.80;67.50
6377;DHT22;3221;48.858;10.128;2023-07-20T14:33:32;23.90;69.20
6377;DHT22;3221;48.858;10.128;2023-07-20T14:35:59;24.20;69.90
6377;DHT22;3221;48.858;10.128;2023-07-20T14:38:31;24.40;69.40
6377;DHT22;3221;48.858;10.128;2023-07-20T14:40:58;24.60;68.60
6377;DHT22;3221;48.858;10.128;2023-07-20T14:43:27;24.70;67.70
6377;DHT22;3221;48.858;10.128;2023-07-20T14:45:54;24.80;69.30
6377;DHT22;3221;48.858;10.128;2023-07-20T14:48:21;24.90;68.00
6377;DHT22;3221;48.858;10.128;2023-07-20T14:50:49;25.10;68.30
6377;DHT22;3221;48.858;10.128;2023-07-20T14:53:17;25.20;68.90
6377;DHT22;3221;48.858;10.128;2023-07-20T14:55:45;25.20;66.10
6377;DHT22;3221;48.858;10.128;2023-07-20T14:58:12;25.20;65.90
6377;DHT22;3221;48.858;10.128;2023-07-20T15:00:40;25.10;66.20
6377;DHT22;3221;48.858;10.128;2023-07-20T15:03:07;25.10;64.70
6377;DHT22;3221;48.858;10.128;2023-07-20T15:05:36;25.00;65.30
6377;DHT22;3221;48.858;10.128;2023-07-20T15:08:05;24.90;65.20
6377;DHT22;3221;48.858;10.128;2023-07-20T15:10:34;24.90;68.10
6377;DHT22;3221;48.858;10.128;2023-07-20T15:13:03;24.80;66.90
6377;DHT22;3221;48.858;10.128;2023-07-20T15:15:30;24.60;65.10
6377;DHT22;3221;48.858;10.128;2023-07-20T15:17:57;24.40;66.70
6377;DHT22;3221;48.858;10.128;2023-07-20T15:20:25;24.20;66.30
6377;DHT22;3221;48.858;10.128;2023-07-20T15:22:53;24.20;67.20
6377;DHT22;3221;48.858;10.128;2023-07-20T15:25:21;24.20;67.80
6377;DHT22;3221;48.858;10.128;2023-07-20T15:27:49;24.10;68.60
6377;DHT22;3221;48.858;10.128;2023-07-20T15:30:19;24.00;68.20
6377;DHT22;3221;48.858;10.128;2023-07-20T15:32:48;24.00;68.10
6377;DHT22;3221;48.858;10.128;2023-07-20T15:35:20;23.60;65.50
6377;DHT22;3221;48.858;10.128;2023-07-20T15:37:47;23.60;67.70
6377;DHT22;3221;48.858;10.128;2023-07-20T15:40:15;23.40;65.00
6377;DHT22;3221;48.858;10.128;2023-07-20T15:42:42;23.20;65.90
6377;DHT22;3221;48.858;10.128;2023-07-20T15:45:09;23.10;65.00
6377;DHT22;3221;48.858;10.128;2023-07-20T15:47:38;23.10;67.20
6377;DHT22;3221;48.858;10.128;2023-07-20T15:50:06;23.20;68.30
6377;DHT22;3221;48.858;10.128;2023-07-20T15:52:33;23.20;67.90
6377;DHT22;3221;48.858;10.128;2023-07-20T15:55:00;23.40;67.90
6377;DHT22;3221;48.858;10.128;2023-07-20T15:57:29;23.20;65.90
6377;DHT22;3221;48.858;10.128;2023-07-20T15:59:58;23.20;68.30
6377;DHT22;3221;48.858;10.128;2023-07-20T16:02:25;23.10;67.50
6377;DHT22;3221;48.858;10.128;2023-07-20T16:04:53;23.10;68.80
6377;DHT22;3221;48.858;10.128;2023-07-20T16:07:20;23.10;65.90
6377;DHT22;3221;48.858;10.128;2023-07-20T16:09:48;23.10;69.00
6377;DHT22;3221;48.858;10.128;2023-07-20T16:12:15;23.10;68.20